Spring Creek, Colorado
Current Conditions -  °F | °C
As of 8:34 AM on Monday 22 Dec 2014 (Local Time) from K7BM Reporting Station
Light Snow Light Snow  
Wind Chill: 20°   Ceiling: 1800
Heat Index: 28°   Visibility: 2.5mi
Dew Point: 18°   Wind: 9mph
Humidity: 64%   Direction: 290°WNW
Pressure: 29.74"   Gusts: 22mph
Location:  38.7752°N, 106.586°W
Report Text: K7BM 221534Z AUTO 29008G19KT 240V010 2 1/2SM -SN SCT008 BKN018 OVC022 M02/M08 A2974 RMK AO2
Loading
Personal Weather Stations






























Interactive Weather Map New forecast layout! Learn more

10-Day Weather Forecast

Advertisements
Track Severe Weather on mobile